EDDSEDSB

Guest
Details From EDDS - Stuttgart
To EDSB - Karlsruhe Baden Baden
Flight Number -
Tags Generated
Created
Modified
Stats Distance 45 nm / 83 km
Max Altitude 0 ft / 0 m
Waypoints 2
Social Downloads 2
Likes 0
Share VATSIM

Download

Looking for another format? Having issues loading an existing format? Contact us
Advertisement - Login to hide

Notes

Generated

Route

EDDS EDSB

ID Type Via Altitude Latitude Longitude Leg Dist Tot Dist Heading (true) Name
O EDDS APT - 0 ft / 0 m 48.68573˚ 9.20013˚ - 0 nm - -
O EDSB APT - 0 ft / 0 m 48.76783˚ 8.06994˚ 45 nm 45 nm 277° / 276° -

Altitude Profile

Advertisement - Login to hide

EDDS

Details ICAO EDDS (STR)
Name Stuttgart
Region Germany - Civil
Timezone Europe/Berlin (UTC+1.0)
Stats Elevation 1,273 ft / 388 m (AMSL)
Location 48.689876° 9.221962°
Runways 1
Magnetic Variation 2.523° E

METAR

EDDS 141720Z 21008KT 180V250 9999 FEW030 SCT110 BKN180 05/00 Q0996 NOSIG

Decode

TAF

TAF TAF EDDS 141100Z 1412/1512 22015G25KT 9999 SCT020 BECMG 1412/1415 22010KT TEMPO 1412/1503 26020G35KT SHRA BKN020CB PROB30 TEMPO 1417/1503 4000 TSRA BKN015CB TEMPO 1506/1512 4000 SHRASN BKN014CB

Decode

Departure Runways

ID Width Length Bearing (true) Bearing (mag) Surface Threshold Offset Overrun Length
07 148 ft / 45 m 10,950 ft / 3,337 m 73.96° 71.44° Concrete 981 ft / 299 m 157 ft / 48 m
25 148 ft / 45 m 10,950 ft / 3,337 m 253.99° 251.47° Concrete 0 ft / 0 m 157 ft / 48 m

EDSB

Details ICAO EDSB (FKB)
Name Karlsruhe Baden Baden
Region Germany - Civil
Timezone Europe/Berlin (UTC+1.0)
Stats Elevation 408 ft / 124 m (AMSL)
Location 48.779257° 8.080642°
Runways 1
Magnetic Variation 2.223° E

METAR

EDSB 141650Z 20016KT 9999 VCSH FEW020 BKN042 07/02 Q0997

Decode

TAF

TAF EDSB 141100Z 1412/1512 20015G25KT 9999 SCT045 TEMPO 1412/1503 26020G35KT SHRA BKN040CB PROB30 TEMPO 1415/1503 4000 TSRA BKN014CB TEMPO 1506/1512 4000 SHRASN BKN014CB

Decode

Destination Runways

ID Width Length Bearing (true) Bearing (mag) Surface Threshold Offset Overrun Length
03 148 ft / 45 m 9,799 ft / 2,987 m 31.69° 29.47° Asphalt 830 ft / 253 m 115 ft / 35 m
21 148 ft / 45 m 9,799 ft / 2,987 m 211.70° 209.48° Asphalt 830 ft / 253 m 115 ft / 35 m

Approach Navaids

Runway Type Ident Frequency Range Bearing (true) Bearing (mag) Slope Elevation
03 Localiser IKBE 109.95 MHz 18 nm / 33 km 31.45° 29.23° - 408 ft / 124 m (AMSL)
03 Glidescope IKBE 109.95 MHz 10 nm / 19 km 31.70° 29.47° 3.00° 456 ft / 139 m (AMSL)
21 Localiser IKBW 108.75 MHz 18 nm / 33 km 211.94° 209.72° - 405 ft / 123 m (AMSL)
21 Glidescope IKBW 108.75 MHz 10 nm / 19 km 211.70° 209.47° 3.00° 408 ft / 124 m (AMSL)

Popular Alternatives